createdAt,value
2023-04-24T00:09:51.793Z,9.47
2023-04-24T00:12:19.479Z,9.52
2023-04-24T00:14:49.636Z,9.44
2023-04-24T00:17:16.719Z,9.40
2023-04-24T00:19:44.076Z,9.47
2023-04-24T00:22:11.888Z,9.48
2023-04-24T00:24:38.927Z,9.41
2023-04-24T00:27:05.982Z,9.34
2023-04-24T00:29:33.055Z,9.43
2023-04-24T00:32:00.566Z,9.43
2023-04-24T00:34:27.652Z,9.50
2023-04-24T00:36:55.770Z,9.35
2023-04-24T00:39:23.945Z,9.34
2023-04-24T00:41:52.564Z,9.38
2023-04-24T00:44:19.892Z,9.48
2023-04-24T00:46:47.532Z,9.37
2023-04-24T00:49:15.446Z,9.33
2023-04-24T00:51:46.627Z,9.37
2023-04-24T00:54:14.292Z,9.33
2023-04-24T00:56:42.541Z,9.30
2023-04-24T00:59:10.209Z,9.30
2023-04-24T01:01:37.367Z,9.36
2023-04-24T01:04:04.910Z,9.41
2023-04-24T01:06:32.901Z,9.34
2023-04-24T01:09:01.532Z,9.43
2023-04-24T01:11:29.100Z,9.43
2023-04-24T01:13:57.275Z,9.24
2023-04-24T01:16:24.421Z,9.43
2023-04-24T01:18:52.401Z,9.33
2023-04-24T01:21:22.530Z,9.33
2023-04-24T01:23:50.263Z,9.47
2023-04-24T01:26:18.827Z,9.56
2023-04-24T01:28:45.930Z,9.60
2023-04-24T01:31:13.028Z,9.61
2023-04-24T01:33:40.411Z,9.66
2023-04-24T01:36:08.610Z,9.64
2023-04-24T01:38:35.910Z,9.60
2023-04-24T01:41:03.540Z,9.65
2023-04-24T01:43:30.844Z,9.77
2023-04-24T01:45:57.893Z,9.63
2023-04-24T01:48:24.938Z,9.64
2023-04-24T01:50:52.302Z,9.65
2023-04-24T01:53:19.480Z,9.61
2023-04-24T01:55:47.465Z,9.54
2023-04-24T01:58:14.869Z,9.61
2023-04-24T02:00:42.064Z,9.62
2023-04-24T02:03:09.245Z,9.61
2023-04-24T02:05:36.326Z,9.64
2023-04-24T02:08:03.400Z,9.64
2023-04-24T02:10:30.522Z,9.69
2023-04-24T02:12:57.552Z,9.65
2023-04-24T02:15:24.632Z,9.71
2023-04-24T02:17:52.176Z,9.70
2023-04-24T02:20:19.511Z,9.67
2023-04-24T02:22:47.005Z,9.73
2023-04-24T02:25:14.049Z,9.70
2023-04-24T02:27:41.147Z,9.77
2023-04-24T02:30:09.111Z,9.77
2023-04-24T02:32:36.702Z,9.71
2023-04-24T02:35:04.022Z,9.79
2023-04-24T02:37:31.027Z,9.78
2023-04-24T02:39:58.068Z,9.72
2023-04-24T02:42:25.238Z,9.77
2023-04-24T02:44:53.442Z,9.69
2023-04-24T02:47:20.689Z,9.73
2023-04-24T02:49:47.849Z,9.69
2023-04-24T02:52:16.118Z,9.72
2023-04-24T02:54:43.994Z,9.79
2023-04-24T02:57:11.083Z,9.73
2023-04-24T02:59:38.191Z,9.82
2023-04-24T03:02:05.378Z,9.64
2023-04-24T03:04:33.178Z,9.56
2023-04-24T03:07:00.711Z,9.57
2023-04-24T03:09:27.750Z,9.45
2023-04-24T03:11:54.846Z,9.44
2023-04-24T03:14:22.446Z,9.53
2023-04-24T03:16:49.512Z,9.54
2023-04-24T03:19:16.738Z,9.43
2023-04-24T03:21:43.784Z,9.48
2023-04-24T03:24:10.887Z,9.37
2023-04-24T03:26:37.882Z,9.42
2023-04-24T03:29:04.887Z,9.40
2023-04-24T03:31:31.996Z,9.39
2023-04-24T03:33:58.986Z,9.36
2023-04-24T03:36:27.138Z,9.43
2023-04-24T03:38:54.156Z,9.39
2023-04-24T03:41:21.335Z,9.42
2023-04-24T03:43:48.449Z,9.45
2023-04-24T03:46:16.300Z,9.47
2023-04-24T03:48:43.472Z,9.48
2023-04-24T03:51:10.597Z,9.48
2023-04-24T03:53:37.726Z,9.51
2023-04-24T03:56:04.763Z,9.52
2023-04-24T03:58:32.008Z,9.44
2023-04-24T04:00:59.433Z,9.46
2023-04-24T04:03:27.153Z,9.44
2023-04-24T04:05:55.172Z,9.46
2023-04-24T04:08:22.514Z,9.43
2023-04-24T04:10:49.812Z,9.46
2023-04-24T04:13:16.884Z,9.42
2023-04-24T04:15:44.636Z,9.35
2023-04-24T04:18:12.207Z,9.35
2023-04-24T04:20:39.321Z,9.33
2023-04-24T04:23:06.373Z,9.47
2023-04-24T04:25:33.681Z,9.38
2023-04-24T04:28:00.771Z,9.41
2023-04-24T04:30:30.369Z,9.42
2023-04-24T04:32:57.589Z,9.48
2023-04-24T04:35:25.847Z,9.54
2023-04-24T04:37:54.340Z,9.55
2023-04-24T04:40:22.472Z,9.54
2023-04-24T04:42:49.501Z,9.47
2023-04-24T04:45:17.883Z,9.45
2023-04-24T04:47:45.365Z,9.54
2023-04-24T04:50:12.474Z,9.63
2023-04-24T04:52:39.549Z,9.61
2023-04-24T04:55:07.387Z,9.61
2023-04-24T04:57:34.478Z,9.68
2023-04-24T05:00:02.325Z,9.69
2023-04-24T05:02:29.486Z,9.68
2023-04-24T05:04:56.931Z,9.66
2023-04-24T05:07:24.130Z,9.69
2023-04-24T05:09:53.376Z,9.74
2023-04-24T05:12:20.435Z,9.78
2023-04-24T05:14:47.420Z,9.81
2023-04-24T05:17:15.076Z,9.88
2023-04-24T05:19:42.536Z,9.85
2023-04-24T05:22:10.670Z,9.89
2023-04-24T05:24:37.880Z,9.85
2023-04-24T05:27:05.961Z,9.86
2023-04-24T05:29:34.120Z,9.77
2023-04-24T05:32:01.845Z,9.86
2023-04-24T05:34:28.884Z,9.92
2023-04-24T05:36:55.949Z,9.80
2023-04-24T05:39:26.061Z,9.73
2023-04-24T05:41:53.737Z,9.76
2023-04-24T05:44:20.852Z,9.77
2023-04-24T05:46:48.144Z,9.73
2023-04-24T05:49:15.387Z,9.69
2023-04-24T05:51:42.780Z,9.73
2023-04-24T05:54:09.855Z,9.68
2023-04-24T05:56:36.954Z,9.53
2023-04-24T05:59:04.534Z,9.44
2023-04-24T06:01:32.494Z,9.47
2023-04-24T06:03:59.701Z,9.47
2023-04-24T06:06:28.225Z,9.39
2023-04-24T06:08:55.460Z,9.45
2023-04-24T06:11:23.983Z,9.23
2023-04-24T06:13:51.621Z,9.20
2023-04-24T06:16:19.515Z,9.26
2023-04-24T06:18:48.135Z,9.17
2023-04-24T06:21:17.517Z,9.11
2023-04-24T06:23:45.085Z,9.29
2023-04-24T06:26:12.135Z,9.24
2023-04-24T06:28:39.576Z,9.10
2023-04-24T06:31:06.660Z,9.02
2023-04-24T06:33:33.793Z,9.05
2023-04-24T06:36:01.108Z,9.03
2023-04-24T06:38:28.207Z,8.97
2023-04-24T06:40:55.259Z,9.01
2023-04-24T06:43:22.739Z,8.98
2023-04-24T06:45:49.864Z,8.96
2023-04-24T06:48:16.924Z,8.88
2023-04-24T06:50:43.946Z,8.97
2023-04-24T06:53:13.499Z,8.87
2023-04-24T06:55:40.655Z,8.92
2023-04-24T06:58:07.739Z,8.87
2023-04-24T07:00:34.739Z,8.90
2023-04-24T07:03:01.993Z,8.83
2023-04-24T07:05:29.212Z,8.80
2023-04-24T07:07:56.332Z,8.81
2023-04-24T07:10:24.238Z,8.78
2023-04-24T07:12:51.989Z,8.92
2023-04-24T07:15:20.450Z,8.95
2023-04-24T07:17:48.948Z,8.80
2023-04-24T07:20:16.582Z,8.74
2023-04-24T07:22:44.202Z,8.63
2023-04-24T07:25:11.223Z,8.72
2023-04-24T07:27:38.315Z,8.68
2023-04-24T07:30:06.055Z,8.71
2023-04-24T07:32:33.140Z,8.66
2023-04-24T07:35:00.655Z,8.57
2023-04-24T07:37:28.754Z,8.55
2023-04-24T07:39:56.388Z,8.64
2023-04-24T07:42:23.786Z,8.62
2023-04-24T07:44:52.721Z,8.64
2023-04-24T07:47:20.106Z,8.68
2023-04-24T07:49:47.168Z,8.59
2023-04-24T07:52:14.260Z,8.60
2023-04-24T07:54:42.061Z,8.70
2023-04-24T07:57:09.439Z,8.76
2023-04-24T07:59:36.593Z,8.77
2023-04-24T08:02:03.672Z,8.76
2023-04-24T08:04:31.003Z,8.78
2023-04-24T08:06:58.296Z,8.82
2023-04-24T08:09:41.464Z,8.84
2023-04-24T08:12:08.544Z,8.68
2023-04-24T08:14:36.087Z,8.64
2023-04-24T08:17:04.376Z,8.64
2023-04-24T08:19:31.767Z,8.38
2023-04-24T08:21:58.791Z,8.45
2023-04-24T08:24:26.003Z,8.32
2023-04-24T08:26:55.082Z,8.36
2023-04-24T08:29:22.159Z,8.49
2023-04-24T08:31:49.557Z,8.46
2023-04-24T08:34:16.747Z,8.37
2023-04-24T08:36:47.484Z,8.22
2023-04-24T08:39:16.044Z,8.18
2023-04-24T08:41:46.647Z,8.28
2023-04-24T08:44:16.664Z,8.21
2023-04-24T08:46:46.585Z,8.27
2023-04-24T08:49:17.247Z,8.42
2023-04-24T08:51:45.131Z,8.27
2023-04-24T08:54:13.403Z,8.28
2023-04-24T08:56:42.692Z,8.28
2023-04-24T08:59:10.000Z,8.29
2023-04-24T09:01:38.598Z,8.29
2023-04-24T09:04:07.617Z,8.27
2023-04-24T09:06:35.818Z,8.36
2023-04-24T09:09:04.477Z,8.45
2023-04-24T09:11:33.158Z,8.40
2023-04-24T09:14:01.737Z,8.50
2023-04-24T09:16:29.123Z,8.53
2023-04-24T09:18:56.588Z,8.51
2023-04-24T09:21:24.285Z,8.57
2023-04-24T09:24:00.634Z,8.68
2023-04-24T09:26:32.855Z,8.68
2023-04-24T09:29:00.781Z,8.79
2023-04-24T09:31:30.637Z,8.82
2023-04-24T09:34:01.779Z,8.97
2023-04-24T09:36:34.056Z,9.12
2023-04-24T09:39:02.352Z,9.27
2023-04-24T09:41:32.417Z,9.04
2023-04-24T09:44:13.250Z,9.08
2023-04-24T09:46:40.574Z,8.97
2023-04-24T09:49:13.377Z,8.89
2023-04-24T09:51:41.624Z,8.71
2023-04-24T09:54:22.773Z,8.79
2023-04-24T09:56:53.046Z,8.87
2023-04-24T09:59:20.929Z,8.97
2023-04-24T10:01:49.664Z,9.13
2023-04-24T10:04:28.498Z,9.27
2023-04-24T10:06:57.730Z,9.53
2023-04-24T10:09:27.177Z,9.55
2023-04-24T10:11:55.985Z,9.49
2023-04-24T10:14:26.038Z,9.45
2023-04-24T10:16:55.141Z,9.31
2023-04-24T10:19:23.874Z,9.46
2023-04-24T10:21:50.951Z,9.53
2023-04-24T10:24:21.386Z,9.63
2023-04-24T10:26:52.778Z,9.47
2023-04-24T10:29:20.728Z,9.23
2023-04-24T10:31:48.340Z,9.15
2023-04-24T10:34:17.990Z,9.24
2023-04-24T10:36:53.591Z,9.47
2023-04-24T10:39:27.264Z,9.45
2023-04-24T10:41:58.243Z,9.60
2023-04-24T10:44:25.833Z,9.66
2023-04-24T10:46:56.757Z,9.70
2023-04-24T10:49:31.413Z,9.61
2023-04-24T10:52:06.076Z,9.50
2023-04-24T10:54:47.219Z,9.64
2023-04-24T10:57:23.865Z,9.60
2023-04-24T11:00:14.287Z,9.33
2023-04-24T11:02:49.463Z,9.17
2023-04-24T11:05:22.679Z,9.07
2023-04-24T11:08:17.031Z,8.68
2023-04-24T11:10:48.623Z,8.77
2023-04-24T11:13:17.408Z,8.53
2023-04-24T11:15:45.059Z,8.71
2023-04-24T11:18:17.010Z,8.87
2023-04-24T11:20:48.387Z,9.02
2023-04-24T11:23:16.913Z,9.01
2023-04-24T11:25:44.064Z,8.77
2023-04-24T11:28:17.241Z,8.93
2023-04-24T11:30:45.118Z,9.15
2023-04-24T11:33:12.637Z,9.28
2023-04-24T11:35:42.618Z,9.76
2023-04-24T11:40:41.118Z,9.84
2023-04-24T11:43:10.415Z,9.89
2023-04-24T11:45:37.623Z,9.81
2023-04-24T11:48:05.074Z,9.64
2023-04-24T11:50:32.315Z,9.76
2023-04-24T11:53:01.541Z,9.94
2023-04-24T11:55:30.313Z,9.97
2023-04-24T11:57:59.532Z,10.36
2023-04-24T12:00:29.843Z,10.69
2023-04-24T12:03:12.530Z,10.82
2023-04-24T12:05:40.604Z,10.72
2023-04-24T12:08:07.906Z,10.35
2023-04-24T12:10:37.064Z,10.33
2023-04-24T12:13:04.296Z,10.23
2023-04-24T12:15:31.630Z,10.02
2023-04-24T12:17:58.859Z,9.93
2023-04-24T12:20:29.462Z,9.97
2023-04-24T12:23:01.745Z,9.91
2023-04-24T12:25:38.241Z,9.86
2023-04-24T12:28:05.232Z,10.04
2023-04-24T12:30:35.008Z,9.79
2023-04-24T12:33:03.601Z,9.67
2023-04-24T12:35:36.775Z,9.74
2023-04-24T12:38:09.114Z,9.73
2023-04-24T12:40:36.342Z,9.81
2023-04-24T12:43:13.528Z,10.09
2023-04-24T12:45:40.676Z,10.44
2023-04-24T12:48:07.858Z,10.44
2023-04-24T12:50:34.971Z,10.51
2023-04-24T12:53:02.105Z,10.55
2023-04-24T12:55:29.153Z,10.40
2023-04-24T12:57:57.060Z,10.42
2023-04-24T13:00:24.311Z,9.92
2023-04-24T13:02:52.875Z,9.46
2023-04-24T13:05:20.084Z,8.75
2023-04-24T13:07:47.217Z,8.57
2023-04-24T13:10:14.399Z,8.48
2023-04-24T13:12:42.037Z,8.43
2023-04-24T13:15:09.547Z,8.61
2023-04-24T13:17:36.631Z,8.91
2023-04-24T13:20:04.102Z,9.25
2023-04-24T13:22:31.256Z,9.37
2023-04-24T13:24:58.408Z,9.52
2023-04-24T13:27:25.576Z,9.56
2023-04-24T13:29:53.779Z,9.50
2023-04-24T13:32:21.158Z,9.79
2023-04-24T13:34:48.326Z,10.09
2023-04-24T13:37:16.002Z,10.05
2023-04-24T13:39:43.056Z,10.31
2023-04-24T13:42:10.527Z,10.16
2023-04-24T13:44:37.800Z,10.15
2023-04-24T13:47:04.950Z,10.13
2023-04-24T13:49:31.968Z,10.09
2023-04-24T13:51:59.164Z,9.83
2023-04-24T13:54:26.993Z,9.73
2023-04-24T13:56:58.783Z,9.73
2023-04-24T13:59:26.194Z,9.81
2023-04-24T14:01:54.360Z,10.01
2023-04-24T14:04:21.693Z,10.90
2023-04-24T14:06:50.066Z,11.68
2023-04-24T14:09:17.151Z,12.01
2023-04-24T14:11:44.239Z,12.60
2023-04-24T14:14:11.585Z,12.76
2023-04-24T14:16:38.644Z,12.45
2023-04-24T14:19:07.198Z,11.82
2023-04-24T14:21:34.502Z,11.52
2023-04-24T14:24:01.827Z,11.62
2023-04-24T14:26:28.878Z,11.23
2023-04-24T14:29:07.249Z,11.19
2023-04-24T14:31:41.443Z,11.17
2023-04-24T14:34:08.460Z,10.83
2023-04-24T14:36:36.050Z,10.56
2023-04-24T14:39:07.818Z,10.28
2023-04-24T14:41:40.116Z,10.53
2023-04-24T14:44:07.356Z,10.24
2023-04-24T14:46:34.695Z,10.07
2023-04-24T14:49:01.810Z,10.05
2023-04-24T14:51:28.889Z,9.97
2023-04-24T14:53:57.554Z,9.82
2023-04-24T14:56:24.537Z,9.84
2023-04-24T14:58:53.027Z,9.98
2023-04-24T15:01:20.183Z,10.70
2023-04-24T15:03:47.507Z,11.60
2023-04-24T15:06:15.140Z,12.09
2023-04-24T15:08:43.067Z,12.13
2023-04-24T15:11:10.953Z,11.43
2023-04-24T15:13:37.981Z,10.75
2023-04-24T15:16:05.920Z,10.62
2023-04-24T15:18:33.028Z,10.22
2023-04-24T15:21:00.408Z,10.29
2023-04-24T15:23:27.620Z,10.58
2023-04-24T15:25:54.995Z,10.73
2023-04-24T15:28:22.983Z,10.85
2023-04-24T15:30:50.047Z,11.01
2023-04-24T15:33:17.139Z,11.05
2023-04-24T15:35:44.246Z,11.44
2023-04-24T15:38:11.740Z,11.11
2023-04-24T15:40:39.101Z,11.57
2023-04-24T15:43:06.176Z,11.59
2023-04-24T15:45:33.962Z,11.30
2023-04-24T15:48:01.883Z,11.44
2023-04-24T15:50:29.239Z,11.28
2023-04-24T15:52:56.313Z,11.56
2023-04-24T15:55:24.090Z,11.11
2023-04-24T15:57:51.552Z,11.04
2023-04-24T16:00:18.929Z,11.38
2023-04-24T16:02:47.253Z,11.48
2023-04-24T16:05:15.067Z,11.86
2023-04-24T16:07:42.108Z,12.02
2023-04-24T16:10:09.853Z,12.06
2023-04-24T16:12:37.021Z,11.48
2023-04-24T16:15:04.588Z,10.70
2023-04-24T16:17:31.895Z,10.39
2023-04-24T16:19:58.973Z,10.08
2023-04-24T16:22:26.311Z,9.90
2023-04-24T16:24:54.581Z,9.96
2023-04-24T16:27:22.309Z,10.08
2023-04-24T16:29:49.546Z,9.98
2023-04-24T16:32:16.597Z,10.11
2023-04-24T16:34:43.931Z,10.58
2023-04-24T16:37:12.268Z,10.88
2023-04-24T16:39:43.920Z,10.95
2023-04-24T16:42:13.231Z,10.27
2023-04-24T16:44:41.368Z,9.98
2023-04-24T16:47:10.341Z,9.93
2023-04-24T16:49:37.637Z,9.93
2023-04-24T16:52:04.732Z,9.97
2023-04-24T16:54:34.614Z,9.67
2023-04-24T16:57:02.464Z,9.68
2023-04-24T16:59:33.432Z,9.66
2023-04-24T17:02:01.642Z,9.57
2023-04-24T17:04:29.111Z,9.68
2023-04-24T17:06:56.290Z,9.58
2023-04-24T17:09:24.392Z,9.45
2023-04-24T17:11:51.474Z,9.48
2023-04-24T17:14:18.503Z,9.59
2023-04-24T17:16:46.458Z,9.74
2023-04-24T17:19:13.677Z,9.71
2023-04-24T17:21:40.945Z,9.63
2023-04-24T17:24:08.184Z,9.51
2023-04-24T17:26:35.441Z,9.33
2023-04-24T17:29:02.573Z,9.53
2023-04-24T17:31:29.675Z,9.52
2023-04-24T17:33:56.780Z,9.39
2023-04-24T17:36:24.133Z,9.56
2023-04-24T17:38:52.847Z,9.44
2023-04-24T17:41:20.036Z,9.31
2023-04-24T17:43:47.237Z,9.29
2023-04-24T17:46:14.349Z,9.10
2023-04-24T17:48:41.888Z,9.16
2023-04-24T17:51:09.019Z,9.33
2023-04-24T17:53:36.450Z,9.21
2023-04-24T17:56:03.996Z,8.95
2023-04-24T17:58:31.606Z,8.93
2023-04-24T18:00:58.667Z,8.97
2023-04-24T18:03:25.933Z,9.02
2023-04-24T18:05:56.147Z,8.85
2023-04-24T18:08:24.139Z,8.89
2023-04-24T18:10:51.398Z,8.71
2023-04-24T18:13:18.546Z,8.79
2023-04-24T18:15:46.017Z,8.79
2023-04-24T18:18:13.180Z,8.80
2023-04-24T18:20:40.398Z,8.75
2023-04-24T18:23:07.444Z,8.55
2023-04-24T18:25:34.682Z,8.62
2023-04-24T18:28:01.852Z,8.59
2023-04-24T18:30:31.065Z,8.52
2023-04-24T18:32:58.762Z,8.57
2023-04-24T18:35:26.164Z,8.58
2023-04-24T18:37:54.271Z,8.57
2023-04-24T18:40:21.654Z,8.45
2023-04-24T18:42:48.860Z,8.55
2023-04-24T18:45:16.657Z,8.54
2023-04-24T18:47:44.148Z,8.45
2023-04-24T18:50:11.850Z,8.47
2023-04-24T18:52:39.226Z,8.42
2023-04-24T18:55:06.969Z,8.53
2023-04-24T18:57:34.307Z,8.51
2023-04-24T19:00:01.823Z,8.63
2023-04-24T19:02:29.035Z,8.60
2023-04-24T19:04:56.196Z,8.48
2023-04-24T19:07:24.418Z,8.54
2023-04-24T19:09:51.568Z,8.51
2023-04-24T19:12:19.580Z,8.48
2023-04-24T19:14:48.534Z,8.53
2023-04-24T19:17:22.934Z,8.45
2023-04-24T19:19:51.091Z,8.38
2023-04-24T19:22:20.061Z,8.27
2023-04-24T19:24:47.608Z,8.20
2023-04-24T19:27:15.718Z,8.27
2023-04-24T19:29:42.958Z,8.14
2023-04-24T19:32:10.024Z,8.09
2023-04-24T19:34:40.284Z,8.20
2023-04-24T19:37:08.045Z,8.14
2023-04-24T19:39:35.191Z,8.22
2023-04-24T19:42:06.492Z,8.31
2023-04-24T19:44:34.529Z,8.22
2023-04-24T19:47:01.932Z,8.12
2023-04-24T19:49:29.146Z,8.01
2023-04-24T19:51:56.209Z,7.96
2023-04-24T19:54:23.731Z,7.96
2023-04-24T19:56:50.794Z,7.96
2023-04-24T19:59:17.984Z,7.99
2023-04-24T20:01:45.192Z,8.00
2023-04-24T20:04:12.829Z,7.97
2023-04-24T20:06:40.181Z,8.11
2023-04-24T20:09:07.262Z,7.99
2023-04-24T20:11:34.563Z,7.95
2023-04-24T20:14:03.610Z,7.71
2023-04-24T20:16:31.194Z,7.58
2023-04-24T20:18:58.823Z,7.79
2023-04-24T20:21:26.582Z,7.79
2023-04-24T20:23:53.956Z,7.71
2023-04-24T20:26:22.139Z,7.51
2023-04-24T20:28:49.487Z,7.43
2023-04-24T20:31:17.025Z,7.34
2023-04-24T20:33:45.523Z,7.22
2023-04-24T20:36:12.587Z,7.29
2023-04-24T20:38:39.725Z,7.35
2023-04-24T20:41:08.715Z,7.22
2023-04-24T20:43:36.216Z,7.18
2023-04-24T20:46:03.495Z,7.16
2023-04-24T20:48:30.565Z,7.16
2023-04-24T20:50:57.642Z,7.20
2023-04-24T20:53:24.825Z,7.09
2023-04-24T20:55:52.547Z,7.07
2023-04-24T20:58:20.909Z,7.05
2023-04-24T21:00:48.369Z,6.90
2023-04-24T21:03:16.449Z,7.00
2023-04-24T21:05:43.638Z,7.03
2023-04-24T21:08:10.693Z,7.10
2023-04-24T21:10:37.731Z,7.14
2023-04-24T21:13:04.814Z,7.15
2023-04-24T21:15:32.966Z,7.17
2023-04-24T21:18:00.624Z,7.19
2023-04-24T21:20:27.772Z,7.18
2023-04-24T21:22:54.869Z,7.28
2023-04-24T21:25:22.609Z,7.14
2023-04-24T21:27:49.658Z,7.19
2023-04-24T21:30:16.842Z,7.25
2023-04-24T21:32:43.961Z,7.32
2023-04-24T21:35:10.944Z,7.28
2023-04-24T21:37:39.653Z,7.24
2023-04-24T21:40:07.883Z,7.23
2023-04-24T21:42:35.347Z,7.23
2023-04-24T21:45:02.432Z,7.02
2023-04-24T21:47:29.529Z,6.95
2023-04-24T21:49:56.884Z,6.93
2023-04-24T21:52:24.046Z,6.87
2023-04-24T21:54:51.071Z,6.92
2023-04-24T21:57:18.343Z,6.79
2023-04-24T21:59:45.635Z,6.76
2023-04-24T22:02:13.256Z,6.68
2023-04-24T22:04:40.672Z,6.63
2023-04-24T22:07:07.903Z,6.81
2023-04-24T22:09:34.881Z,6.80
2023-04-24T22:12:02.068Z,6.69
2023-04-24T22:14:29.164Z,6.74
2023-04-24T22:16:57.834Z,6.84
2023-04-24T22:19:26.228Z,6.83
2023-04-24T22:21:54.014Z,6.91
2023-04-24T22:24:21.090Z,7.00
2023-04-24T22:26:48.377Z,6.95
2023-04-24T22:29:15.402Z,7.04
2023-04-24T22:31:42.634Z,7.06
2023-04-24T22:34:10.145Z,7.09
2023-04-24T22:36:37.159Z,7.14
2023-04-24T22:39:05.350Z,7.10
2023-04-24T22:41:32.346Z,7.09
2023-04-24T22:43:59.553Z,7.14
2023-04-24T22:46:26.732Z,7.10
2023-04-24T22:48:54.127Z,7.06
2023-04-24T22:51:21.908Z,7.05
2023-04-24T22:53:49.777Z,7.06
2023-04-24T22:56:17.628Z,7.06
2023-04-24T22:58:45.318Z,7.04
2023-04-24T23:01:12.514Z,6.94
2023-04-24T23:03:39.910Z,6.95
2023-04-24T23:06:07.259Z,6.93
2023-04-24T23:08:34.408Z,6.92
2023-04-24T23:11:01.913Z,6.91
2023-04-24T23:13:29.110Z,6.95
2023-04-24T23:15:56.231Z,6.84
2023-04-24T23:18:23.753Z,6.90
2023-04-24T23:20:51.522Z,6.81
2023-04-24T23:23:19.217Z,6.79
2023-04-24T23:25:46.693Z,6.71
2023-04-24T23:28:13.796Z,6.69
2023-04-24T23:30:41.025Z,6.65
2023-04-24T23:33:08.606Z,6.59
2023-04-24T23:35:36.080Z,6.63
2023-04-24T23:38:03.197Z,6.59
2023-04-24T23:40:30.392Z,6.58
2023-04-24T23:43:06.135Z,6.66
2023-04-24T23:45:34.618Z,6.64
2023-04-24T23:48:01.979Z,6.59
2023-04-24T23:50:29.130Z,6.61
2023-04-24T23:52:56.591Z,6.57
2023-04-24T23:55:23.874Z,6.48
2023-04-24T23:57:50.848Z,6.54
